Chatham, Massachusetts
Current Conditions -  °F | °C
As of 7:52 PM on Friday 19 Dec 2014 (Local Time) from KCQX Reporting Station
Overcast Overcast  
Wind Chill: 32°   Ceiling: 3200
Heat Index: 37°   Visibility: 10mi
Dew Point: 26°   Wind: 6mph
Humidity: 65%   Direction: 300°WNW
Pressure: 30.06"   Gusts: NA
Location:  41.68°N, 69.96°W
Report Text: KCQX 200052Z AUTO 30005KT 10SM OVC032 03/M03 A3006 RMK AO2 SLP181 T00281033
Loading
Personal Weather Stations






























Interactive Weather Map New forecast layout! Learn more

10-Day Weather Forecast

Advertisements
Track Severe Weather on mobile